sensor_id;sensor_type;location;lat;lon;timestamp;pressure;altitude;pressure_sealevel;temperature;humidity
76730;BME280;65653;53.106;18.046;2022-12-31T00:00:06;100317.65;;;4.79;78.32
76730;BME280;65653;53.106;18.046;2022-12-31T00:02:34;100303.02;;;4.78;78.50
76730;BME280;65653;53.106;18.046;2022-12-31T00:05:00;100305.14;;;4.78;78.53
76730;BME280;65653;53.106;18.046;2022-12-31T00:07:27;100293.79;;;4.80;78.49
76730;BME280;65653;53.106;18.046;2022-12-31T00:09:54;100283.64;;;4.81;78.48
76730;BME280;65653;53.106;18.046;2022-12-31T00:12:20;100278.86;;;4.81;78.47
76730;BME280;65653;53.106;18.046;2022-12-31T00:14:47;100272.30;;;4.82;78.50
76730;BME280;65653;53.106;18.046;2022-12-31T00:17:14;100266.20;;;4.83;78.53
76730;BME280;65653;53.106;18.046;2022-12-31T00:19:40;100270.05;;;4.83;78.55
76730;BME280;65653;53.106;18.046;2022-12-31T00:22:07;100277.38;;;4.82;78.58
76730;BME280;65653;53.106;18.046;2022-12-31T00:24:33;100282.55;;;4.84;78.69
76730;BME280;65653;53.106;18.046;2022-12-31T00:27:01;100281.78;;;4.87;78.51
76730;BME280;65653;53.106;18.046;2022-12-31T00:29:27;100282.25;;;4.89;78.37
76730;BME280;65653;53.106;18.046;2022-12-31T00:31:54;100284.65;;;4.90;78.40
76730;BME280;65653;53.106;18.046;2022-12-31T00:34:21;100273.74;;;4.90;78.45
76730;BME280;65653;53.106;18.046;2022-12-31T00:36:47;100273.04;;;4.93;78.32
76730;BME280;65653;53.106;18.046;2022-12-31T00:39:14;100275.80;;;4.96;78.23
76730;BME280;65653;53.106;18.046;2022-12-31T00:41:40;100277.89;;;5.01;78.07
76730;BME280;65653;53.106;18.046;2022-12-31T00:44:12;100274.70;;;5.02;78.00
76730;BME280;65653;53.106;18.046;2022-12-31T00:46:39;100275.16;;;5.06;77.86
76730;BME280;65653;53.106;18.046;2022-12-31T00:49:06;100275.36;;;5.10;77.64
76730;BME280;65653;53.106;18.046;2022-12-31T00:51:32;100269.63;;;5.13;77.57
76730;BME280;65653;53.106;18.046;2022-12-31T00:53:59;100262.96;;;5.15;77.44
76730;BME280;65653;53.106;18.046;2022-12-31T00:56:28;100255.55;;;5.14;77.52
76730;BME280;65653;53.106;18.046;2022-12-31T00:58:56;100254.56;;;5.15;77.46
76730;BME280;65653;53.106;18.046;2022-12-31T01:01:25;100245.41;;;5.17;77.35
76730;BME280;65653;53.106;18.046;2022-12-31T01:03:56;100248.48;;;5.19;77.30
76730;BME280;65653;53.106;18.046;2022-12-31T01:06:23;100237.01;;;5.18;77.39
76730;BME280;65653;53.106;18.046;2022-12-31T01:08:50;100244.86;;;5.16;77.35
76730;BME280;65653;53.106;18.046;2022-12-31T01:11:18;100248.23;;;5.15;77.36
76730;BME280;65653;53.106;18.046;2022-12-31T01:14:02;100252.05;;;5.20;77.20
76730;BME280;65653;53.106;18.046;2022-12-31T01:16:32;100264.90;;;5.32;76.82
76730;BME280;65653;53.106;18.046;2022-12-31T01:19:02;100262.86;;;5.38;76.70
76730;BME280;65653;53.106;18.046;2022-12-31T01:21:29;100264.61;;;5.43;76.42
76730;BME280;65653;53.106;18.046;2022-12-31T01:23:57;100263.31;;;5.52;76.19
76730;BME280;65653;53.106;18.046;2022-12-31T01:26:24;100253.96;;;5.62;75.92
76730;BME280;65653;53.106;18.046;2022-12-31T01:28:51;100243.52;;;5.70;75.41
76730;BME280;65653;53.106;18.046;2022-12-31T01:31:19;100245.35;;;5.77;75.29
76730;BME280;65653;53.106;18.046;2022-12-31T01:33:46;100239.13;;;5.81;75.05
76730;BME280;65653;53.106;18.046;2022-12-31T01:36:15;100244.85;;;5.86;75.20
76730;BME280;65653;53.106;18.046;2022-12-31T01:38:42;100234.49;;;5.91;74.86
76730;BME280;65653;53.106;18.046;2022-12-31T01:41:14;100233.68;;;5.96;74.73
76730;BME280;65653;53.106;18.046;2022-12-31T01:43:50;100234.45;;;5.99;74.62
76730;BME280;65653;53.106;18.046;2022-12-31T01:46:36;100230.58;;;6.00;74.69
76730;BME280;65653;53.106;18.046;2022-12-31T01:49:28;100227.55;;;6.04;74.68
76730;BME280;65653;53.106;18.046;2022-12-31T01:52:14;100233.40;;;6.07;74.67
76730;BME280;65653;53.106;18.046;2022-12-31T01:54:46;100243.05;;;6.10;74.75
76730;BME280;65653;53.106;18.046;2022-12-31T01:57:15;100246.02;;;6.14;74.68
76730;BME280;65653;53.106;18.046;2022-12-31T01:59:43;100247.86;;;6.20;74.54
76730;BME280;65653;53.106;18.046;2022-12-31T02:02:11;100242.54;;;6.29;74.37
76730;BME280;65653;53.106;18.046;2022-12-31T02:04:39;100252.34;;;6.37;74.42
76730;BME280;65653;53.106;18.046;2022-12-31T02:07:07;100245.21;;;6.41;74.33
76730;BME280;65653;53.106;18.046;2022-12-31T02:09:39;100242.52;;;6.45;74.31
76730;BME280;65653;53.106;18.046;2022-12-31T02:12:07;100238.34;;;6.48;74.31
76730;BME280;65653;53.106;18.046;2022-12-31T02:14:43;100240.48;;;6.54;74.19
76730;BME280;65653;53.106;18.046;2022-12-31T02:23:05;100240.98;;;6.76;74.06
76730;BME280;65653;53.106;18.046;2022-12-31T02:31:29;100226.09;;;6.98;73.70
76730;BME280;65653;53.106;18.046;2022-12-31T02:34:05;100220.27;;;6.99;73.77
76730;BME280;65653;53.106;18.046;2022-12-31T02:36:37;100220.92;;;7.01;73.64
76730;BME280;65653;53.106;18.046;2022-12-31T02:39:06;100221.02;;;7.06;73.66
76730;BME280;65653;53.106;18.046;2022-12-31T02:41:33;100221.25;;;7.11;73.49
76730;BME280;65653;53.106;18.046;2022-12-31T02:46:58;100214.39;;;7.19;73.63
76730;BME280;65653;53.106;18.046;2022-12-31T03:01:28;100239.89;;;7.08;75.11
76730;BME280;65653;53.106;18.046;2022-12-31T03:04:14;100238.33;;;7.11;75.11
76730;BME280;65653;53.106;18.046;2022-12-31T03:07:06;100252.37;;;7.16;75.09
76730;BME280;65653;53.106;18.046;2022-12-31T03:09:34;100251.65;;;7.21;74.86
76730;BME280;65653;53.106;18.046;2022-12-31T03:12:02;100247.64;;;7.22;74.80
76730;BME280;65653;53.106;18.046;2022-12-31T03:14:48;100245.80;;;7.20;74.92
76730;BME280;65653;53.106;18.046;2022-12-31T03:17:15;100245.73;;;7.22;74.90
76730;BME280;65653;53.106;18.046;2022-12-31T03:19:41;100247.08;;;7.25;74.75
76730;BME280;65653;53.106;18.046;2022-12-31T03:22:27;100242.92;;;7.26;74.75
76730;BME280;65653;53.106;18.046;2022-12-31T03:24:55;100246.88;;;7.25;74.84
76730;BME280;65653;53.106;18.046;2022-12-31T03:27:41;100239.16;;;7.26;74.80
76730;BME280;65653;53.106;18.046;2022-12-31T03:30:08;100239.73;;;7.29;74.69
76730;BME280;65653;53.106;18.046;2022-12-31T03:32:36;100241.16;;;7.30;74.73
76730;BME280;65653;53.106;18.046;2022-12-31T03:35:03;100247.08;;;7.29;74.71
76730;BME280;65653;53.106;18.046;2022-12-31T03:37:29;100247.93;;;7.30;74.75
76730;BME280;65653;53.106;18.046;2022-12-31T03:39:56;100247.27;;;7.32;74.67
76730;BME280;65653;53.106;18.046;2022-12-31T03:42:22;100247.70;;;7.36;74.72
76730;BME280;65653;53.106;18.046;2022-12-31T03:44:49;100238.29;;;7.36;74.78
76730;BME280;65653;53.106;18.046;2022-12-31T03:47:15;100236.06;;;7.33;74.80
76730;BME280;65653;53.106;18.046;2022-12-31T03:49:42;100239.41;;;7.34;74.91
76730;BME280;65653;53.106;18.046;2022-12-31T03:52:08;100233.59;;;7.37;74.83
76730;BME280;65653;53.106;18.046;2022-12-31T03:54:35;100236.02;;;7.38;74.84
76730;BME280;65653;53.106;18.046;2022-12-31T03:57:02;100234.06;;;7.36;75.01
76730;BME280;65653;53.106;18.046;2022-12-31T03:59:29;100234.39;;;7.35;75.18
76730;BME280;65653;53.106;18.046;2022-12-31T04:01:55;100234.48;;;7.37;75.08
76730;BME280;65653;53.106;18.046;2022-12-31T04:04:22;100234.11;;;7.40;75.05
76730;BME280;65653;53.106;18.046;2022-12-31T04:06:48;100239.11;;;7.40;75.18
76730;BME280;65653;53.106;18.046;2022-12-31T04:09:15;100241.94;;;7.39;75.34
76730;BME280;65653;53.106;18.046;2022-12-31T04:11:42;100241.95;;;7.40;75.45
76730;BME280;65653;53.106;18.046;2022-12-31T04:14:09;100241.29;;;7.42;75.37
76730;BME280;65653;53.106;18.046;2022-12-31T04:16:36;100246.00;;;7.43;75.51
76730;BME280;65653;53.106;18.046;2022-12-31T04:19:03;100251.10;;;7.43;75.58
76730;BME280;65653;53.106;18.046;2022-12-31T04:21:30;100258.48;;;7.42;75.73
76730;BME280;65653;53.106;18.046;2022-12-31T04:23:57;100257.08;;;7.44;75.89
76730;BME280;65653;53.106;18.046;2022-12-31T04:26:23;100255.62;;;7.47;75.83
76730;BME280;65653;53.106;18.046;2022-12-31T04:28:50;100252.67;;;7.48;76.02
76730;BME280;65653;53.106;18.046;2022-12-31T04:31:17;100249.08;;;7.47;76.13
76730;BME280;65653;53.106;18.046;2022-12-31T04:33:44;100252.12;;;7.48;76.25
76730;BME280;65653;53.106;18.046;2022-12-31T04:36:10;100251.13;;;7.50;76.37
76730;BME280;65653;53.106;18.046;2022-12-31T04:38:37;100266.11;;;7.52;76.39
76730;BME280;65653;53.106;18.046;2022-12-31T04:41:03;100267.83;;;7.54;76.54
76730;BME280;65653;53.106;18.046;2022-12-31T04:43:45;100262.50;;;7.56;76.69
76730;BME280;65653;53.106;18.046;2022-12-31T04:46:13;100261.83;;;7.57;76.81
76730;BME280;65653;53.106;18.046;2022-12-31T04:48:40;100257.98;;;7.58;76.71
76730;BME280;65653;53.106;18.046;2022-12-31T04:51:06;100260.45;;;7.59;76.82
76730;BME280;65653;53.106;18.046;2022-12-31T04:53:33;100263.77;;;7.60;76.82
76730;BME280;65653;53.106;18.046;2022-12-31T04:56:00;100259.87;;;7.61;77.03
76730;BME280;65653;53.106;18.046;2022-12-31T04:58:26;100259.52;;;7.63;77.18
76730;BME280;65653;53.106;18.046;2022-12-31T05:00:53;100256.77;;;7.66;77.34
76730;BME280;65653;53.106;18.046;2022-12-31T05:03:22;100259.14;;;7.67;77.40
76730;BME280;65653;53.106;18.046;2022-12-31T05:05:51;100259.09;;;7.71;77.42
76730;BME280;65653;53.106;18.046;2022-12-31T05:08:18;100258.42;;;7.73;77.40
76730;BME280;65653;53.106;18.046;2022-12-31T05:10:47;100264.86;;;7.77;77.58
76730;BME280;65653;53.106;18.046;2022-12-31T05:13:15;100263.03;;;7.80;77.47
76730;BME280;65653;53.106;18.046;2022-12-31T05:15:41;100262.83;;;7.81;77.45
76730;BME280;65653;53.106;18.046;2022-12-31T05:18:08;100267.47;;;7.84;77.46
76730;BME280;65653;53.106;18.046;2022-12-31T05:20:34;100278.36;;;7.87;77.52
76730;BME280;65653;53.106;18.046;2022-12-31T05:23:01;100282.77;;;7.92;77.61
76730;BME280;65653;53.106;18.046;2022-12-31T05:25:28;100290.25;;;7.98;77.45
76730;BME280;65653;53.106;18.046;2022-12-31T05:27:55;100290.27;;;8.01;77.39
76730;BME280;65653;53.106;18.046;2022-12-31T05:30:22;100296.45;;;8.03;77.34
76730;BME280;65653;53.106;18.046;2022-12-31T05:32:49;100302.84;;;8.07;77.37
76730;BME280;65653;53.106;18.046;2022-12-31T05:35:15;100300.57;;;8.13;77.35
76730;BME280;65653;53.106;18.046;2022-12-31T05:37:43;100294.70;;;8.17;77.29
76730;BME280;65653;53.106;18.046;2022-12-31T05:40:10;100292.41;;;8.18;77.16
76730;BME280;65653;53.106;18.046;2022-12-31T05:42:37;100289.67;;;8.19;77.31
76730;BME280;65653;53.106;18.046;2022-12-31T05:45:04;100300.52;;;8.23;77.13
76730;BME280;65653;53.106;18.046;2022-12-31T05:47:31;100302.45;;;8.27;77.13
76730;BME280;65653;53.106;18.046;2022-12-31T05:49:57;100301.07;;;8.29;77.11
76730;BME280;65653;53.106;18.046;2022-12-31T05:52:24;100299.64;;;8.31;77.15
76730;BME280;65653;53.106;18.046;2022-12-31T05:54:51;100306.31;;;8.33;77.24
76730;BME280;65653;53.106;18.046;2022-12-31T05:57:18;100301.11;;;8.34;77.17
76730;BME280;65653;53.106;18.046;2022-12-31T05:59:45;100297.58;;;8.39;77.21
76730;BME280;65653;53.106;18.046;2022-12-31T06:02:11;100294.52;;;8.39;77.11
76730;BME280;65653;53.106;18.046;2022-12-31T06:04:38;100296.56;;;8.39;77.15
76730;BME280;65653;53.106;18.046;2022-12-31T06:07:05;100299.72;;;8.39;77.23
76730;BME280;65653;53.106;18.046;2022-12-31T06:09:31;100300.58;;;8.42;77.26
76730;BME280;65653;53.106;18.046;2022-12-31T06:11:58;100305.23;;;8.46;77.21
76730;BME280;65653;53.106;18.046;2022-12-31T06:14:24;100301.81;;;8.48;77.13
76730;BME280;65653;53.106;18.046;2022-12-31T06:16:51;100299.92;;;8.47;77.30
76730;BME280;65653;53.106;18.046;2022-12-31T06:19:18;100302.28;;;8.49;77.37
76730;BME280;65653;53.106;18.046;2022-12-31T06:21:45;100301.11;;;8.52;77.40
76730;BME280;65653;53.106;18.046;2022-12-31T06:24:11;100300.14;;;8.58;77.17
76730;BME280;65653;53.106;18.046;2022-12-31T06:26:38;100294.25;;;8.62;77.08
76730;BME280;65653;53.106;18.046;2022-12-31T06:29:04;100291.41;;;8.63;77.14
76730;BME280;65653;53.106;18.046;2022-12-31T06:31:31;100295.20;;;8.64;77.11
76730;BME280;65653;53.106;18.046;2022-12-31T06:33:58;100295.38;;;8.65;77.10
76730;BME280;65653;53.106;18.046;2022-12-31T06:36:24;100290.44;;;8.69;76.97
76730;BME280;65653;53.106;18.046;2022-12-31T06:38:52;100290.27;;;8.70;77.06
76730;BME280;65653;53.106;18.046;2022-12-31T06:41:19;100291.75;;;8.69;76.96
76730;BME280;65653;53.106;18.046;2022-12-31T06:43:46;100292.54;;;8.66;77.05
76730;BME280;65653;53.106;18.046;2022-12-31T06:46:15;100288.84;;;8.64;76.98
76730;BME280;65653;53.106;18.046;2022-12-31T06:48:43;100292.90;;;8.63;77.13
76730;BME280;65653;53.106;18.046;2022-12-31T06:51:16;100296.80;;;8.57;77.32
76730;BME280;65653;53.106;18.046;2022-12-31T06:53:44;100294.92;;;8.48;77.54
76730;BME280;65653;53.106;18.046;2022-12-31T06:58:41;100302.36;;;8.37;77.83
76730;BME280;65653;53.106;18.046;2022-12-31T07:01:33;100307.48;;;8.36;77.98
76730;BME280;65653;53.106;18.046;2022-12-31T07:04:17;100310.17;;;8.32;77.98
76730;BME280;65653;53.106;18.046;2022-12-31T07:07:05;100310.55;;;8.27;78.19
76730;BME280;65653;53.106;18.046;2022-12-31T07:09:48;100306.86;;;8.27;78.15
76730;BME280;65653;53.106;18.046;2022-12-31T07:14:58;100301.52;;;8.28;78.10
76730;BME280;65653;53.106;18.046;2022-12-31T07:17:42;100305.13;;;8.27;78.11
76730;BME280;65653;53.106;18.046;2022-12-31T07:20:16;100300.18;;;8.29;78.20
76730;BME280;65653;53.106;18.046;2022-12-31T07:22:44;100284.46;;;8.34;78.05
76730;BME280;65653;53.106;18.046;2022-12-31T07:25:13;100287.25;;;8.38;77.98
76730;BME280;65653;53.106;18.046;2022-12-31T07:28:05;100294.31;;;8.41;77.85
76730;BME280;65653;53.106;18.046;2022-12-31T07:33:39;100290.84;;;8.53;77.79
76730;BME280;65653;53.106;18.046;2022-12-31T07:39:17;100295.14;;;8.60;77.46
76730;BME280;65653;53.106;18.046;2022-12-31T07:42:13;100300.51;;;8.63;77.58
76730;BME280;65653;53.106;18.046;2022-12-31T07:45:10;100304.78;;;8.75;77.34
76730;BME280;65653;53.106;18.046;2022-12-31T07:47:33;100313.88;;;8.90;76.75
76730;BME280;65653;53.106;18.046;2022-12-31T07:50:00;100310.64;;;8.98;76.51
76730;BME280;65653;53.106;18.046;2022-12-31T07:52:27;100319.39;;;9.05;76.30
76730;BME280;65653;53.106;18.046;2022-12-31T07:54:53;100315.14;;;9.13;76.08
76730;BME280;65653;53.106;18.046;2022-12-31T07:57:22;100304.92;;;9.18;76.08
76730;BME280;65653;53.106;18.046;2022-12-31T08:00:07;100297.29;;;9.22;75.98
76730;BME280;65653;53.106;18.046;2022-12-31T08:10:52;100320.98;;;9.26;76.12
76730;BME280;65653;53.106;18.046;2022-12-31T08:13:24;100316.28;;;9.31;76.09
76730;BME280;65653;53.106;18.046;2022-12-31T08:15:52;100318.45;;;9.34;76.06
76730;BME280;65653;53.106;18.046;2022-12-31T08:18:18;100320.25;;;9.34;76.17
76730;BME280;65653;53.106;18.046;2022-12-31T08:20:57;100320.04;;;9.36;76.11
76730;BME280;65653;53.106;18.046;2022-12-31T08:23:40;100320.34;;;9.39;76.15
76730;BME280;65653;53.106;18.046;2022-12-31T08:26:35;100321.20;;;9.39;76.32
76730;BME280;65653;53.106;18.046;2022-12-31T08:40:26;100313.73;;;9.57;76.37
76730;BME280;65653;53.106;18.046;2022-12-31T08:43:11;100304.87;;;9.63;76.34
76730;BME280;65653;53.106;18.046;2022-12-31T08:45:46;100295.92;;;9.70;76.35
76730;BME280;65653;53.106;18.046;2022-12-31T08:48:30;100292.23;;;9.70;76.29
76730;BME280;65653;53.106;18.046;2022-12-31T08:50:58;100290.41;;;9.70;76.36
76730;BME280;65653;53.106;18.046;2022-12-31T08:53:25;100293.73;;;9.71;76.48
76730;BME280;65653;53.106;18.046;2022-12-31T08:56:00;100291.61;;;9.76;76.36
76730;BME280;65653;53.106;18.046;2022-12-31T08:59:03;100297.96;;;9.83;76.12
76730;BME280;65653;53.106;18.046;2022-12-31T09:01:54;100291.84;;;9.90;75.82
76730;BME280;65653;53.106;18.046;2022-12-31T09:04:44;100293.10;;;9.95;75.79
76730;BME280;65653;53.106;18.046;2022-12-31T09:07:15;100303.95;;;10.04;75.53
76730;BME280;65653;53.106;18.046;2022-12-31T09:12:57;100287.12;;;10.14;75.20
76730;BME280;65653;53.106;18.046;2022-12-31T09:18:03;100287.89;;;10.21;75.14
76730;BME280;65653;53.106;18.046;2022-12-31T09:20:32;100284.36;;;10.25;75.12
76730;BME280;65653;53.106;18.046;2022-12-31T09:23:00;100287.12;;;10.32;74.76
76730;BME280;65653;53.106;18.046;2022-12-31T09:25:27;100272.69;;;10.40;74.54
76730;BME280;65653;53.106;18.046;2022-12-31T09:28:13;100262.36;;;10.49;74.50
76730;BME280;65653;53.106;18.046;2022-12-31T09:30:49;100264.62;;;10.50;74.68
76730;BME280;65653;53.106;18.046;2022-12-31T09:36:04;100235.95;;;10.43;75.36
76730;BME280;65653;53.106;18.046;2022-12-31T09:38:49;100243.48;;;10.31;77.49
76730;BME280;65653;53.106;18.046;2022-12-31T09:45:15;100227.64;;;9.94;81.09
76730;BME280;65653;53.106;18.046;2022-12-31T09:48:22;100223.88;;;9.86;82.20
76730;BME280;65653;53.106;18.046;2022-12-31T09:50:58;100219.36;;;9.73;83.65
76730;BME280;65653;53.106;18.046;2022-12-31T09:53:34;100218.42;;;9.68;84.48
76730;BME280;65653;53.106;18.046;2022-12-31T09:59:01;100221.25;;;9.75;84.93
76730;BME280;65653;53.106;18.046;2022-12-31T10:04:32;100200.00;;;9.95;84.65
76730;BME280;65653;53.106;18.046;2022-12-31T10:12:45;100200.96;;;10.16;83.67
76730;BME280;65653;53.106;18.046;2022-12-31T10:20:47;100201.05;;;10.18;83.71
76730;BME280;65653;53.106;18.046;2022-12-31T10:28:48;100188.13;;;9.83;86.28
76730;BME280;65653;53.106;18.046;2022-12-31T10:50:46;100162.06;;;10.08;85.94
76730;BME280;65653;53.106;18.046;2022-12-31T11:01:47;100155.72;;;10.42;84.34
76730;BME280;65653;53.106;18.046;2022-12-31T11:10:11;100146.01;;;10.54;83.31
76730;BME280;65653;53.106;18.046;2022-12-31T11:18:05;100137.63;;;10.88;81.62
76730;BME280;65653;53.106;18.046;2022-12-31T11:26:07;100116.27;;;11.11;80.41
76730;BME280;65653;53.106;18.046;2022-12-31T11:31:10;100107.34;;;11.30;80.11
76730;BME280;65653;53.106;18.046;2022-12-31T11:37:18;100109.77;;;11.56;79.17
76730;BME280;65653;53.106;18.046;2022-12-31T11:42:39;100100.72;;;11.75;78.86
76730;BME280;65653;53.106;18.046;2022-12-31T11:51:01;100096.46;;;12.45;76.02
76730;BME280;65653;53.106;18.046;2022-12-31T11:56:16;100082.83;;;12.99;74.70
76730;BME280;65653;53.106;18.046;2022-12-31T11:58:47;100080.33;;;13.04;74.28
76730;BME280;65653;53.106;18.046;2022-12-31T12:01:26;100076.17;;;13.11;73.93
76730;BME280;65653;53.106;18.046;2022-12-31T12:03:56;100081.40;;;13.19;73.54
76730;BME280;65653;53.106;18.046;2022-12-31T12:06:29;100078.02;;;13.13;73.97
76730;BME280;65653;53.106;18.046;2022-12-31T12:09:04;100073.44;;;13.01;74.32
76730;BME280;65653;53.106;18.046;2022-12-31T12:11:34;100067.80;;;13.24;74.63
76730;BME280;65653;53.106;18.046;2022-12-31T12:14:30;100064.77;;;13.44;73.65
76730;BME280;65653;53.106;18.046;2022-12-31T12:16:58;100056.96;;;13.35;73.91
76730;BME280;65653;53.106;18.046;2022-12-31T12:19:28;100063.51;;;13.27;74.12
76730;BME280;65653;53.106;18.046;2022-12-31T12:21:56;100058.15;;;13.29;74.03
76730;BME280;65653;53.106;18.046;2022-12-31T12:24:28;100055.98;;;13.29;74.04
76730;BME280;65653;53.106;18.046;2022-12-31T12:26:56;100053.98;;;13.39;73.89
76730;BME280;65653;53.106;18.046;2022-12-31T12:29:31;100050.66;;;13.58;73.26
76730;BME280;65653;53.106;18.046;2022-12-31T12:32:02;100055.67;;;13.63;72.76
76730;BME280;65653;53.106;18.046;2022-12-31T12:34:38;100058.58;;;13.59;72.86
76730;BME280;65653;53.106;18.046;2022-12-31T12:37:20;100056.98;;;13.51;73.35
76730;BME280;65653;53.106;18.046;2022-12-31T12:42:28;100064.59;;;13.39;73.90
76730;BME280;65653;53.106;18.046;2022-12-31T12:47:28;100055.30;;;13.37;74.17
76730;BME280;65653;53.106;18.046;2022-12-31T12:50:19;100059.29;;;13.45;74.28
76730;BME280;65653;53.106;18.046;2022-12-31T12:55:31;100058.55;;;13.76;73.09
76730;BME280;65653;53.106;18.046;2022-12-31T12:58:30;100055.58;;;13.87;73.17
76730;BME280;65653;53.106;18.046;2022-12-31T13:01:12;100061.77;;;13.92;72.91
76730;BME280;65653;53.106;18.046;2022-12-31T13:06:44;100056.05;;;13.97;72.76
76730;BME280;65653;53.106;18.046;2022-12-31T13:12:23;100061.39;;;14.08;72.53
76730;BME280;65653;53.106;18.046;2022-12-31T13:15:33;100065.09;;;14.09;72.50
76730;BME280;65653;53.106;18.046;2022-12-31T13:18:26;100067.48;;;14.14;72.22
76730;BME280;65653;53.106;18.046;2022-12-31T13:23:47;100069.92;;;14.11;72.37
76730;BME280;65653;53.106;18.046;2022-12-31T13:26:24;100077.77;;;14.14;72.32
76730;BME280;65653;53.106;18.046;2022-12-31T13:28:53;100079.61;;;14.17;72.39
76730;BME280;65653;53.106;18.046;2022-12-31T13:31:30;100082.05;;;14.16;72.20
76730;BME280;65653;53.106;18.046;2022-12-31T13:34:03;100083.30;;;14.15;71.97
76730;BME280;65653;53.106;18.046;2022-12-31T13:36:31;100090.31;;;14.14;72.30
76730;BME280;65653;53.106;18.046;2022-12-31T13:39:01;100084.10;;;14.14;72.17
76730;BME280;65653;53.106;18.046;2022-12-31T13:44:29;100085.32;;;14.15;72.18
76730;BME280;65653;53.106;18.046;2022-12-31T13:47:10;100084.61;;;14.13;72.42
76730;BME280;65653;53.106;18.046;2022-12-31T13:49:50;100090.95;;;14.10;72.51
76730;BME280;65653;53.106;18.046;2022-12-31T13:52:41;100092.12;;;14.05;72.78
76730;BME280;65653;53.106;18.046;2022-12-31T13:55:20;100094.45;;;14.01;72.99
76730;BME280;65653;53.106;18.046;2022-12-31T14:05:55;100104.83;;;13.94;73.24
76730;BME280;65653;53.106;18.046;2022-12-31T14:08:26;100106.33;;;13.87;73.48
76730;BME280;65653;53.106;18.046;2022-12-31T14:11:05;100105.71;;;13.81;73.85
76730;BME280;65653;53.106;18.046;2022-12-31T14:14:04;100106.48;;;13.76;73.82
76730;BME280;65653;53.106;18.046;2022-12-31T14:24:50;100112.73;;;13.63;74.33
76730;BME280;65653;53.106;18.046;2022-12-31T14:27:30;100121.88;;;13.64;74.46
76730;BME280;65653;53.106;18.046;2022-12-31T14:44:40;100128.23;;;13.31;75.66
76730;BME280;65653;53.106;18.046;2022-12-31T14:47:23;100137.27;;;13.28;75.78
76730;BME280;65653;53.106;18.046;2022-12-31T14:49:57;100140.27;;;13.25;75.86
76730;BME280;65653;53.106;18.046;2022-12-31T14:52:48;100143.04;;;13.23;75.91
76730;BME280;65653;53.106;18.046;2022-12-31T14:57:45;100155.32;;;13.17;76.39
76730;BME280;65653;53.106;18.046;2022-12-31T15:03:04;100172.34;;;13.13;76.35
76730;BME280;65653;53.106;18.046;2022-12-31T15:05:36;100176.13;;;13.15;76.57
76730;BME280;65653;53.106;18.046;2022-12-31T15:24:29;100178.75;;;13.12;76.66
76730;BME280;65653;53.106;18.046;2022-12-31T15:26:58;100182.91;;;13.13;76.70
76730;BME280;65653;53.106;18.046;2022-12-31T15:29:31;100186.48;;;13.15;76.65
76730;BME280;65653;53.106;18.046;2022-12-31T15:32:00;100188.52;;;13.17;76.69
76730;BME280;65653;53.106;18.046;2022-12-31T15:34:30;100182.80;;;13.17;76.70
76730;BME280;65653;53.106;18.046;2022-12-31T15:37:34;100180.63;;;13.21;76.66
76730;BME280;65653;53.106;18.046;2022-12-31T15:40:20;100174.24;;;13.25;76.29
76730;BME280;65653;53.106;18.046;2022-12-31T15:43:09;100175.73;;;13.28;76.33
76730;BME280;65653;53.106;18.046;2022-12-31T15:45:40;100183.75;;;13.33;76.24
76730;BME280;65653;53.106;18.046;2022-12-31T15:48:25;100182.37;;;13.39;75.93
76730;BME280;65653;53.106;18.046;2022-12-31T15:50:57;100183.45;;;13.44;75.74
76730;BME280;65653;53.106;18.046;2022-12-31T15:53:33;100182.19;;;13.48;75.59
76730;BME280;65653;53.106;18.046;2022-12-31T15:56:01;100179.88;;;13.52;75.58
76730;BME280;65653;53.106;18.046;2022-12-31T15:58:33;100178.02;;;13.53;75.44
76730;BME280;65653;53.106;18.046;2022-12-31T16:01:18;100183.30;;;13.51;75.46
76730;BME280;65653;53.106;18.046;2022-12-31T16:03:54;100190.98;;;13.49;75.61
76730;BME280;65653;53.106;18.046;2022-12-31T16:06:24;100183.80;;;13.49;75.63
76730;BME280;65653;53.106;18.046;2022-12-31T16:08:52;100188.48;;;13.53;75.64
76730;BME280;65653;53.106;18.046;2022-12-31T16:11:21;100183.16;;;13.56;75.49
76730;BME280;65653;53.106;18.046;2022-12-31T16:13:50;100185.33;;;13.58;75.31
76730;BME280;65653;53.106;18.046;2022-12-31T16:16:29;100191.23;;;13.62;75.17
76730;BME280;65653;53.106;18.046;2022-12-31T16:18:57;100189.90;;;13.71;74.88
76730;BME280;65653;53.106;18.046;2022-12-31T16:21:29;100189.84;;;13.75;74.84
76730;BME280;65653;53.106;18.046;2022-12-31T16:26:54;100186.15;;;13.83;74.41
76730;BME280;65653;53.106;18.046;2022-12-31T16:29:22;100178.38;;;13.88;74.16
76730;BME280;65653;53.106;18.046;2022-12-31T16:31:51;100170.83;;;13.91;74.25
76730;BME280;65653;53.106;18.046;2022-12-31T16:34:25;100174.73;;;13.95;73.85
76730;BME280;65653;53.106;18.046;2022-12-31T16:36:57;100189.57;;;14.05;73.56
76730;BME280;65653;53.106;18.046;2022-12-31T16:39:35;100194.71;;;14.17;73.26
76730;BME280;65653;53.106;18.046;2022-12-31T16:44:40;100215.79;;;14.22;72.98
76730;BME280;65653;53.106;18.046;2022-12-31T16:47:11;100227.73;;;14.23;72.96
76730;BME280;65653;53.106;18.046;2022-12-31T16:49:40;100233.14;;;14.29;72.79
76730;BME280;65653;53.106;18.046;2022-12-31T16:52:23;100229.77;;;14.31;72.95
76730;BME280;65653;53.106;18.046;2022-12-31T16:54:51;100231.48;;;14.32;72.79
76730;BME280;65653;53.106;18.046;2022-12-31T16:57:22;100237.27;;;14.36;72.90
76730;BME280;65653;53.106;18.046;2022-12-31T16:59:54;100245.55;;;14.44;72.63
76730;BME280;65653;53.106;18.046;2022-12-31T17:02:44;100237.86;;;14.53;72.55